createdAt,value
2017-09-11T00:00:54.004Z,14.6
2017-09-11T00:01:55.404Z,14.5
2017-09-11T00:02:56.823Z,14.6
2017-09-11T00:03:58.220Z,14.5
2017-09-11T00:05:00.399Z,14.5
2017-09-11T00:06:01.052Z,14.5
2017-09-11T00:07:02.448Z,14.6
2017-09-11T00:08:03.845Z,14.6
2017-09-11T00:09:05.262Z,14.5
2017-09-11T00:10:06.658Z,14.5
2017-09-11T00:11:08.144Z,14.6
2017-09-11T00:12:09.540Z,14.6
2017-09-11T00:13:11.022Z,14.5
2017-09-11T00:14:12.421Z,14.6
2017-09-11T00:15:13.825Z,14.6
2017-09-11T00:16:15.242Z,14.6
2017-09-11T00:17:16.643Z,14.5
2017-09-11T00:18:18.125Z,14.6
2017-09-11T00:19:19.525Z,14.5
2017-09-11T00:20:21.003Z,14.6
2017-09-11T00:21:22.401Z,14.5
2017-09-11T00:22:23.884Z,14.5
2017-09-11T00:23:25.282Z,14.5
2017-09-11T00:24:26.680Z,14.6
2017-09-11T00:25:28.081Z,14.5
2017-09-11T00:26:29.485Z,14.6
2017-09-11T00:27:30.984Z,14.6
2017-09-11T00:28:32.384Z,14.5
2017-09-11T00:29:33.782Z,14.6
2017-09-11T00:30:35.213Z,14.6
2017-09-11T00:31:36.630Z,14.5
2017-09-11T00:32:38.032Z,14.5
2017-09-11T00:33:39.436Z,14.5
2017-09-11T00:34:40.838Z,14.5
2017-09-11T00:35:42.306Z,14.5
2017-09-11T00:36:43.702Z,14.6
2017-09-11T00:37:45.182Z,14.5
2017-09-11T00:38:46.584Z,14.6
2017-09-11T00:39:48.062Z,14.5
2017-09-11T00:40:49.464Z,14.5
2017-09-11T00:41:50.943Z,14.5
2017-09-11T00:42:52.347Z,14.6
2017-09-11T00:44:03.309Z,14.5
2017-09-11T00:45:02.966Z,14.5
2017-09-11T00:46:04.373Z,14.5
2017-09-11T00:47:05.774Z,14.6
2017-09-11T00:48:07.265Z,14.5
2017-09-11T00:49:08.660Z,14.6
2017-09-11T00:50:10.058Z,14.6
2017-09-11T00:51:11.488Z,14.5
2017-09-11T00:52:12.890Z,14.5
2017-09-11T00:53:14.286Z,14.6
2017-09-11T00:54:15.707Z,14.6
2017-09-11T00:55:17.107Z,14.5
2017-09-11T00:56:18.505Z,14.6
2017-09-11T00:57:19.921Z,14.6
2017-09-11T00:58:21.323Z,14.6
2017-09-11T00:59:22.716Z,14.7
2017-09-11T01:00:24.143Z,14.6
2017-09-11T01:01:25.538Z,14.6
2017-09-11T01:02:27.314Z,14.6
2017-09-11T01:03:28.769Z,14.7
2017-09-11T01:04:30.166Z,14.6
2017-09-11T01:05:31.569Z,14.7
2017-09-11T01:06:32.986Z,14.6
2017-09-11T01:07:34.387Z,14.7
2017-09-11T01:08:35.868Z,14.7
2017-09-11T01:09:37.275Z,14.6
2017-09-11T01:10:38.670Z,14.7
2017-09-11T01:11:40.088Z,14.7
2017-09-11T01:12:41.482Z,14.7
2017-09-11T01:13:42.879Z,14.7
2017-09-11T01:14:44.305Z,14.7
2017-09-11T01:15:45.704Z,14.7
2017-09-11T01:16:47.103Z,14.7
2017-09-11T01:17:48.507Z,14.8
2017-09-11T01:18:49.966Z,14.7
2017-09-11T01:19:51.374Z,14.6
2017-09-11T01:20:52.759Z,14.7
2017-09-11T01:21:54.209Z,14.7
2017-09-11T01:22:55.612Z,14.8
2017-09-11T01:23:57.017Z,14.7
2017-09-11T01:24:58.522Z,14.7
2017-09-11T01:25:59.920Z,14.7
2017-09-11T01:27:01.406Z,14.7
2017-09-11T01:28:04.325Z,14.7
2017-09-11T01:29:05.724Z,14.7
2017-09-11T01:30:07.125Z,14.7
2017-09-11T01:31:08.581Z,14.7
2017-09-11T01:32:09.979Z,14.7
2017-09-11T01:33:11.378Z,14.7
2017-09-11T01:34:12.780Z,14.7
2017-09-11T01:35:14.242Z,14.7
2017-09-11T01:36:15.640Z,14.7
2017-09-11T01:37:17.038Z,14.7
2017-09-11T01:38:18.457Z,14.7
2017-09-11T01:39:19.879Z,14.7
2017-09-11T01:40:21.279Z,14.6
2017-09-11T01:41:22.782Z,14.6
2017-09-11T01:42:24.180Z,14.6
2017-09-11T01:43:25.664Z,14.6
2017-09-11T01:44:27.062Z,14.6
2017-09-11T01:45:28.538Z,14.6
2017-09-11T01:46:29.941Z,14.6
2017-09-11T01:47:31.338Z,14.6
2017-09-11T01:48:32.758Z,14.6
2017-09-11T01:49:34.159Z,14.5
2017-09-11T01:50:35.556Z,14.6
2017-09-11T01:51:36.977Z,14.6
2017-09-11T01:52:38.382Z,14.6
2017-09-11T01:53:39.859Z,14.5
2017-09-11T01:54:41.258Z,14.5
2017-09-11T01:55:42.738Z,14.5
2017-09-11T01:56:44.168Z,14.5
2017-09-11T01:57:45.618Z,14.6
2017-09-11T01:58:47.019Z,14.5
2017-09-11T01:59:48.500Z,14.5
2017-09-11T02:00:49.899Z,14.6
2017-09-11T02:01:51.405Z,14.6
2017-09-11T02:02:52.817Z,14.5
2017-09-11T02:03:54.262Z,14.5
2017-09-11T02:04:55.661Z,14.5
2017-09-11T02:05:57.071Z,14.5
2017-09-11T02:06:58.582Z,14.5
2017-09-11T02:08:00.385Z,14.5
2017-09-11T02:09:01.784Z,14.4
2017-09-11T02:10:03.319Z,14.5
2017-09-11T02:11:04.713Z,14.5
2017-09-11T02:12:06.201Z,14.5
2017-09-11T02:13:07.603Z,14.5
2017-09-11T02:14:09.074Z,14.5
2017-09-11T02:15:10.474Z,14.5
2017-09-11T02:16:11.954Z,14.5
2017-09-11T02:17:13.361Z,14.4
2017-09-11T02:18:14.837Z,14.5
2017-09-11T02:19:16.233Z,14.5
2017-09-11T02:20:17.714Z,14.4
2017-09-11T02:21:19.118Z,14.5
2017-09-11T02:22:20.519Z,14.5
2017-09-11T02:23:22.051Z,14.5
2017-09-11T02:24:23.451Z,14.5
2017-09-11T02:25:24.848Z,14.4
2017-09-11T02:26:26.359Z,14.4
2017-09-11T02:27:27.759Z,14.5
2017-09-11T02:28:29.162Z,14.5
2017-09-11T02:29:30.681Z,14.5
2017-09-11T02:30:32.081Z,14.5
2017-09-11T02:31:33.481Z,14.5
2017-09-11T02:32:35.002Z,14.5
2017-09-11T02:33:36.401Z,14.5
2017-09-11T02:34:37.893Z,14.5
2017-09-11T02:35:39.295Z,14.5
2017-09-11T02:36:40.763Z,14.4
2017-09-11T02:37:42.161Z,14.5
2017-09-11T02:38:43.642Z,14.5
2017-09-11T02:39:45.041Z,14.5
2017-09-11T02:40:46.526Z,14.5
2017-09-11T02:41:47.893Z,14.5
2017-09-11T02:42:49.424Z,14.5
2017-09-11T02:43:50.834Z,14.5
2017-09-11T02:44:52.279Z,14.6
2017-09-11T02:45:53.690Z,14.5
2017-09-11T02:46:55.165Z,14.5
2017-09-11T02:47:56.566Z,14.5
2017-09-11T02:48:58.045Z,14.5
2017-09-11T02:49:59.453Z,14.5
2017-09-11T02:51:00.926Z,14.5
2017-09-11T02:52:02.325Z,14.6
2017-09-11T02:53:03.730Z,14.5
2017-09-11T02:54:05.635Z,14.6
2017-09-11T02:55:07.037Z,14.5
2017-09-11T02:56:08.439Z,14.6
2017-09-11T02:57:09.977Z,14.5
2017-09-11T02:58:12.344Z,14.6
2017-09-11T02:59:14.348Z,14.6
2017-09-11T03:00:16.364Z,14.6
2017-09-11T03:01:18.378Z,14.5
2017-09-11T03:02:20.370Z,14.6
2017-09-11T03:03:21.795Z,14.5
2017-09-11T03:04:23.194Z,14.6
2017-09-11T03:05:24.679Z,14.6
2017-09-11T03:06:26.097Z,14.5
2017-09-11T03:07:27.496Z,14.6
2017-09-11T03:08:29.203Z,14.5
2017-09-11T03:09:30.607Z,14.5
2017-09-11T03:10:32.010Z,14.5
2017-09-11T03:11:33.418Z,14.5
2017-09-11T03:12:34.963Z,14.6
2017-09-11T03:13:36.359Z,14.5
2017-09-11T03:14:37.759Z,14.6
2017-09-11T03:15:39.283Z,14.5
2017-09-11T03:16:40.683Z,14.6
2017-09-11T03:17:42.088Z,14.5
2017-09-11T03:18:43.502Z,14.6
2017-09-11T03:19:44.900Z,14.6
2017-09-11T03:20:46.300Z,14.6
2017-09-11T03:21:47.721Z,14.5
2017-09-11T03:22:49.118Z,14.5
2017-09-11T03:23:50.603Z,14.5
2017-09-11T03:24:52.009Z,14.6
2017-09-11T03:25:54.508Z,14.5
2017-09-11T03:26:55.907Z,14.5
2017-09-11T03:27:57.308Z,14.6
2017-09-11T03:28:58.724Z,14.5
2017-09-11T03:30:00.128Z,14.5
2017-09-11T03:31:01.531Z,14.5
2017-09-11T03:32:02.944Z,14.5
2017-09-11T03:33:04.353Z,14.6
2017-09-11T03:34:05.757Z,14.6
2017-09-11T03:35:07.157Z,14.6
2017-09-11T03:36:08.604Z,14.6
2017-09-11T03:37:10.004Z,14.5
2017-09-11T03:38:11.483Z,14.5
2017-09-11T03:39:12.885Z,14.6
2017-09-11T03:40:14.290Z,14.6
2017-09-11T03:41:15.912Z,14.5
2017-09-11T03:42:17.308Z,14.5
2017-09-11T03:43:18.732Z,14.5
2017-09-11T03:44:20.436Z,14.5
2017-09-11T03:45:21.836Z,14.5
2017-09-11T03:46:23.244Z,14.5
2017-09-11T03:47:24.773Z,14.4
2017-09-11T03:48:26.172Z,14.4
2017-09-11T03:49:27.846Z,14.4
2017-09-11T03:50:29.244Z,14.5
2017-09-11T03:51:30.647Z,14.4
2017-09-11T03:52:32.161Z,14.4
2017-09-11T03:53:33.566Z,14.4
2017-09-11T03:54:34.963Z,14.4
2017-09-11T03:55:36.368Z,14.5
2017-09-11T03:56:37.925Z,14.4
2017-09-11T03:57:39.322Z,14.4
2017-09-11T03:58:40.718Z,14.4
2017-09-11T03:59:42.244Z,14.4
2017-09-11T04:00:43.657Z,14.4
2017-09-11T04:01:45.052Z,14.5
2017-09-11T04:02:46.569Z,14.4
2017-09-11T04:03:47.968Z,14.4
2017-09-11T04:04:49.650Z,14.4
2017-09-11T04:05:51.048Z,14.4
2017-09-11T04:06:52.750Z,14.4
2017-09-11T04:07:54.152Z,14.5
2017-09-11T04:08:55.552Z,14.4
2017-09-11T04:09:57.262Z,14.4
2017-09-11T04:10:58.658Z,14.5
2017-09-11T04:12:00.247Z,14.4
2017-09-11T04:13:02.373Z,14.4
2017-09-11T04:14:04.172Z,14.4
2017-09-11T04:15:05.592Z,14.5
2017-09-11T04:16:06.994Z,14.4
2017-09-11T04:17:08.477Z,14.4
2017-09-11T04:18:09.872Z,14.4
2017-09-11T04:19:11.731Z,14.5
2017-09-11T04:20:13.128Z,14.5
2017-09-11T04:21:14.746Z,14.4
2017-09-11T04:22:16.143Z,14.4
2017-09-11T04:23:17.862Z,14.4
2017-09-11T04:24:19.257Z,14.4
2017-09-11T04:25:20.912Z,14.4
2017-09-11T04:26:22.332Z,14.4
2017-09-11T04:27:24.002Z,14.4
2017-09-11T04:28:25.577Z,14.4
2017-09-11T04:29:27.091Z,14.4
2017-09-11T04:30:28.502Z,14.4
2017-09-11T04:31:29.966Z,14.4
2017-09-11T04:32:31.367Z,14.4
2017-09-11T04:33:32.763Z,14.4
2017-09-11T04:34:34.166Z,14.4
2017-09-11T04:35:36.065Z,14.5
2017-09-11T04:36:37.463Z,14.4
2017-09-11T04:37:38.872Z,14.4
2017-09-11T04:38:44.643Z,14.4
2017-09-11T04:39:44.003Z,14.4
2017-09-11T04:40:49.902Z,14.5
2017-09-11T04:41:52.776Z,14.4
2017-09-11T04:42:55.947Z,14.4
2017-09-11T04:43:57.347Z,14.4
2017-09-11T04:44:59.893Z,14.4
2017-09-11T04:46:01.884Z,14.4
2017-09-11T04:47:03.348Z,14.4
2017-09-11T04:48:04.748Z,14.4
2017-09-11T04:49:06.228Z,14.5
2017-09-11T04:50:07.635Z,14.5
2017-09-11T04:51:11.213Z,14.4
2017-09-11T04:52:13.382Z,14.5
2017-09-11T04:53:16.383Z,14.4
2017-09-11T04:54:17.781Z,14.4
2017-09-11T04:55:19.185Z,14.5
2017-09-11T04:56:20.613Z,14.5
2017-09-11T04:57:22.009Z,14.5
2017-09-11T04:58:23.493Z,14.5
2017-09-11T04:59:24.895Z,14.5
2017-09-11T05:00:26.371Z,14.4
2017-09-11T05:01:27.771Z,14.4
2017-09-11T05:02:29.253Z,14.5
2017-09-11T05:03:30.657Z,14.4
2017-09-11T05:04:32.058Z,14.5
2017-09-11T05:05:33.463Z,14.6
2017-09-11T05:06:34.914Z,14.5
2017-09-11T05:07:36.334Z,14.5
2017-09-11T05:08:37.744Z,14.6
2017-09-11T05:09:39.234Z,14.5
2017-09-11T05:10:40.637Z,14.5
2017-09-11T05:11:42.115Z,14.5
2017-09-11T05:12:43.519Z,14.6
2017-09-11T05:13:44.996Z,14.4
2017-09-11T05:14:46.396Z,14.5
2017-09-11T05:15:47.877Z,14.5
2017-09-11T05:16:49.295Z,14.5
2017-09-11T05:17:50.706Z,14.5
2017-09-11T05:18:52.224Z,14.5
2017-09-11T05:19:53.625Z,14.5
2017-09-11T05:20:55.071Z,14.5
2017-09-11T05:21:56.526Z,14.5
2017-09-11T05:22:57.920Z,14.5
2017-09-11T05:23:59.324Z,14.5
2017-09-11T05:25:00.741Z,14.5
2017-09-11T05:26:02.143Z,14.5
2017-09-11T05:27:03.545Z,14.6
2017-09-11T05:28:05.058Z,14.6
2017-09-11T05:29:06.466Z,14.5
2017-09-11T05:30:07.943Z,14.6
2017-09-11T05:31:09.348Z,14.5
2017-09-11T05:32:10.821Z,14.5
2017-09-11T05:33:12.223Z,14.5
2017-09-11T05:34:13.705Z,14.6
2017-09-11T05:35:15.104Z,14.5
2017-09-11T05:36:16.582Z,14.5
2017-09-11T05:37:17.985Z,14.5
2017-09-11T05:38:19.463Z,14.6
2017-09-11T05:39:20.865Z,14.5
2017-09-11T05:40:22.269Z,14.5
2017-09-11T05:41:23.784Z,14.5
2017-09-11T05:42:25.187Z,14.6
2017-09-11T05:43:26.589Z,14.6
2017-09-11T05:44:28.382Z,14.5
2017-09-11T05:45:29.785Z,14.6
2017-09-11T05:46:31.293Z,14.5
2017-09-11T05:47:32.695Z,14.5
2017-09-11T05:48:34.099Z,14.5
2017-09-11T05:49:35.614Z,14.5
2017-09-11T05:50:37.016Z,14.5
2017-09-11T05:51:38.416Z,14.5
2017-09-11T05:52:39.840Z,14.6
2017-09-11T05:53:41.235Z,14.6
2017-09-11T05:54:42.637Z,14.6
2017-09-11T05:55:45.101Z,14.5
2017-09-11T05:56:46.506Z,14.5
2017-09-11T05:57:47.956Z,14.6
2017-09-11T05:58:49.355Z,14.5
2017-09-11T05:59:50.763Z,14.5
2017-09-11T06:00:52.287Z,14.5
2017-09-11T06:01:53.711Z,14.5
2017-09-11T06:02:55.100Z,14.5
2017-09-11T06:03:56.979Z,14.5
2017-09-11T06:04:58.396Z,14.5
2017-09-11T06:05:59.801Z,14.5
2017-09-11T06:07:01.237Z,14.6
2017-09-11T06:08:02.641Z,14.6
2017-09-11T06:09:04.045Z,14.5
2017-09-11T06:10:05.548Z,14.6
2017-09-11T06:11:06.954Z,14.6
2017-09-11T06:12:08.368Z,14.6
2017-09-11T06:13:09.762Z,14.5
2017-09-11T06:14:11.166Z,14.6
2017-09-11T06:15:12.573Z,14.6
2017-09-11T06:16:13.976Z,14.6
2017-09-11T06:17:15.379Z,14.6
2017-09-11T06:18:16.792Z,14.6
2017-09-11T06:19:18.197Z,14.7
2017-09-11T06:20:19.597Z,14.7
2017-09-11T06:21:21.009Z,14.7
2017-09-11T06:22:22.408Z,14.7
2017-09-11T06:23:23.809Z,14.7
2017-09-11T06:24:25.225Z,14.7
2017-09-11T06:25:26.626Z,14.7
2017-09-11T06:26:28.029Z,14.7
2017-09-11T06:27:29.438Z,14.7
2017-09-11T06:28:30.843Z,14.8
2017-09-11T06:29:32.241Z,14.7
2017-09-11T06:30:33.662Z,14.8
2017-09-11T06:31:35.063Z,14.8
2017-09-11T06:32:36.526Z,14.8
2017-09-11T06:33:38.306Z,14.7
2017-09-11T06:34:39.717Z,14.9
2017-09-11T06:35:41.124Z,14.8
2017-09-11T06:36:42.528Z,14.9
2017-09-11T06:37:43.957Z,14.9
2017-09-11T06:38:45.355Z,14.9
2017-09-11T06:39:46.801Z,14.9
2017-09-11T06:40:48.202Z,14.9
2017-09-11T06:41:49.990Z,14.9
2017-09-11T06:42:51.396Z,14.9
2017-09-11T06:43:52.801Z,14.9
2017-09-11T06:44:54.220Z,14.9
2017-09-11T06:45:55.617Z,14.9
2017-09-11T06:46:57.028Z,14.9
2017-09-11T06:47:58.431Z,14.9
2017-09-11T06:48:59.852Z,14.9
2017-09-11T06:50:02.302Z,14.9
2017-09-11T06:51:03.717Z,14.9
2017-09-11T06:52:05.507Z,14.9
2017-09-11T06:53:06.916Z,14.9
2017-09-11T06:54:08.324Z,15.0
2017-09-11T06:55:09.731Z,15.0
2017-09-11T06:56:11.133Z,15.0
2017-09-11T06:57:12.551Z,15.0
2017-09-11T06:58:13.951Z,14.9
2017-09-11T06:59:15.357Z,15.1
2017-09-11T07:00:16.788Z,15.0
2017-09-11T07:01:18.202Z,15.0
2017-09-11T07:02:19.608Z,15.0
2017-09-11T07:03:21.017Z,15.0
2017-09-11T07:04:22.451Z,15.0
2017-09-11T07:05:23.838Z,15.0
2017-09-11T07:06:25.268Z,15.1
2017-09-11T07:07:26.677Z,15.0
2017-09-11T07:08:28.091Z,15.1
2017-09-11T07:09:29.499Z,15.1
2017-09-11T07:10:30.897Z,15.1
2017-09-11T07:11:32.308Z,15.1
2017-09-11T07:12:33.709Z,15.1
2017-09-11T07:13:35.119Z,15.1
2017-09-11T07:14:36.522Z,15.1
2017-09-11T07:15:37.920Z,15.1
2017-09-11T07:16:39.295Z,15.1
2017-09-11T07:17:40.697Z,15.1
2017-09-11T07:18:42.103Z,15.1
2017-09-11T07:19:43.514Z,15.2
2017-09-11T07:20:44.919Z,15.2
2017-09-11T07:21:46.322Z,15.1
2017-09-11T07:22:47.735Z,15.1
2017-09-11T07:23:49.521Z,15.3
2017-09-11T07:24:50.942Z,15.3
2017-09-11T07:25:52.377Z,15.2
2017-09-11T07:26:53.793Z,15.3
2017-09-11T07:27:55.201Z,15.3
2017-09-11T07:28:56.708Z,15.3
2017-09-11T07:29:58.099Z,15.4
2017-09-11T07:30:59.522Z,15.3
2017-09-11T07:32:00.933Z,15.4
2017-09-11T07:33:02.341Z,15.4
2017-09-11T07:34:03.753Z,15.4
2017-09-11T07:35:05.537Z,15.3
2017-09-11T07:36:06.943Z,15.3
2017-09-11T07:37:08.355Z,15.3
2017-09-11T07:38:09.753Z,15.3
2017-09-11T07:39:11.156Z,15.2
2017-09-11T07:40:12.562Z,15.3
2017-09-11T07:41:13.984Z,15.4
2017-09-11T07:42:15.381Z,15.5
2017-09-11T07:43:16.803Z,15.5
2017-09-11T07:44:18.214Z,15.6
2017-09-11T07:45:19.610Z,15.5
2017-09-11T07:46:21.025Z,15.6
2017-09-11T07:47:22.426Z,15.6
2017-09-11T07:48:23.844Z,15.8
2017-09-11T07:49:25.266Z,15.7
2017-09-11T07:50:26.676Z,15.8
2017-09-11T07:51:28.082Z,15.8
2017-09-11T07:52:29.496Z,15.8
2017-09-11T07:53:30.899Z,15.9
2017-09-11T07:54:32.307Z,15.9
2017-09-11T07:55:33.718Z,15.8
2017-09-11T07:56:35.124Z,15.9
2017-09-11T07:57:36.537Z,16.0
2017-09-11T07:58:37.997Z,16.0
2017-09-11T07:59:39.408Z,16.1
2017-09-11T08:00:40.812Z,16.1
2017-09-11T08:01:42.216Z,16.1
2017-09-11T08:02:43.631Z,16.2
2017-09-11T08:03:45.036Z,16.3
2017-09-11T08:04:46.441Z,16.3
2017-09-11T08:05:47.850Z,16.4
2017-09-11T08:06:49.285Z,16.4
2017-09-11T08:07:50.688Z,16.5
2017-09-11T08:08:52.100Z,16.7
2017-09-11T08:09:53.500Z,16.6
2017-09-11T08:10:54.908Z,16.6
2017-09-11T08:11:56.332Z,16.7
2017-09-11T08:12:57.753Z,16.7
2017-09-11T08:13:59.159Z,16.7
2017-09-11T08:15:00.571Z,16.8
2017-09-11T08:16:01.978Z,16.7
2017-09-11T08:17:03.391Z,16.7
2017-09-11T08:18:04.799Z,16.7
2017-09-11T08:19:06.211Z,16.7
2017-09-11T08:20:07.618Z,16.6
2017-09-11T08:21:09.021Z,16.6
2017-09-11T08:22:10.429Z,16.6
2017-09-11T08:23:11.833Z,16.6
2017-09-11T08:24:13.241Z,16.6
2017-09-11T08:25:14.648Z,16.7
2017-09-11T08:26:16.054Z,16.7
2017-09-11T08:27:17.470Z,16.8
2017-09-11T08:28:18.873Z,16.7
2017-09-11T08:29:20.290Z,16.7
2017-09-11T08:30:21.695Z,16.7
2017-09-11T08:31:23.105Z,16.7
2017-09-11T08:32:24.509Z,16.9
2017-09-11T08:33:25.934Z,16.9
2017-09-11T08:34:27.332Z,16.9
2017-09-11T08:35:28.741Z,16.9
2017-09-11T08:36:30.146Z,16.9
2017-09-11T08:37:31.555Z,17.1
2017-09-11T08:38:32.961Z,17.2
2017-09-11T08:39:34.368Z,17.2
2017-09-11T08:40:35.775Z,17.3
2017-09-11T08:41:37.185Z,17.4
2017-09-11T08:42:38.591Z,17.4
2017-09-11T08:43:40.000Z,17.5
2017-09-11T08:44:41.420Z,17.7
2017-09-11T08:45:42.832Z,17.8
2017-09-11T08:46:44.259Z,17.8
2017-09-11T08:47:45.665Z,17.9
2017-09-11T08:48:47.077Z,18.1
2017-09-11T08:49:48.485Z,18.1
2017-09-11T08:50:49.890Z,18.2
2017-09-11T08:51:51.301Z,18.3
2017-09-11T08:52:52.708Z,18.3
2017-09-11T08:53:54.125Z,18.4
2017-09-11T08:54:55.536Z,18.4
2017-09-11T08:55:57.227Z,18.5
2017-09-11T08:56:58.638Z,18.5
2017-09-11T08:58:00.042Z,18.5
2017-09-11T08:59:01.442Z,18.6
2017-09-11T09:00:02.871Z,18.6
2017-09-11T09:01:04.661Z,18.6
2017-09-11T09:02:06.075Z,18.6
2017-09-11T09:03:07.489Z,18.7
2017-09-11T09:04:08.895Z,18.8
2017-09-11T09:05:10.349Z,18.8
2017-09-11T09:06:11.755Z,18.9
2017-09-11T09:07:13.539Z,18.9
2017-09-11T09:08:14.955Z,18.8
2017-09-11T09:09:16.362Z,18.8
2017-09-11T09:10:17.770Z,18.9
2017-09-11T09:11:19.179Z,19.0
2017-09-11T09:12:20.966Z,19.2
2017-09-11T09:13:22.378Z,19.1
2017-09-11T09:14:23.782Z,18.9
2017-09-11T09:15:25.196Z,18.8
2017-09-11T09:16:26.601Z,18.9
2017-09-11T09:17:28.017Z,19.1
2017-09-11T09:18:29.803Z,19.3
2017-09-11T09:19:31.210Z,19.4
2017-09-11T09:20:32.614Z,19.4
2017-09-11T09:21:34.021Z,19.5
2017-09-11T09:22:35.432Z,19.6
2017-09-11T09:23:36.840Z,19.7
2017-09-11T09:24:38.257Z,19.5
2017-09-11T09:25:39.668Z,19.7
2017-09-11T09:26:41.073Z,19.8
2017-09-11T09:27:42.491Z,19.9
2017-09-11T09:28:43.908Z,20.0
2017-09-11T09:29:45.314Z,20.1
2017-09-11T09:30:46.753Z,20.2
2017-09-11T09:31:48.168Z,20.3
2017-09-11T09:32:49.576Z,20.3
2017-09-11T09:33:50.979Z,20.5
2017-09-11T09:34:52.390Z,20.6
2017-09-11T09:35:53.813Z,20.6
2017-09-11T09:36:55.246Z,20.7
2017-09-11T09:37:56.653Z,20.8
2017-09-11T09:38:58.068Z,20.7
2017-09-11T09:39:59.477Z,20.8
2017-09-11T09:41:00.880Z,20.5
2017-09-11T09:42:02.288Z,20.5
2017-09-11T09:43:03.695Z,20.4
2017-09-11T09:44:05.108Z,20.5
2017-09-11T09:45:06.514Z,20.4
2017-09-11T09:46:07.975Z,20.1
2017-09-11T09:47:09.392Z,20.1
2017-09-11T09:48:10.801Z,19.9
2017-09-11T09:49:12.216Z,19.9
2017-09-11T09:50:13.621Z,19.9
2017-09-11T09:51:15.022Z,19.8
2017-09-11T09:52:16.440Z,19.8
2017-09-11T09:53:17.849Z,20.0
2017-09-11T09:54:19.259Z,20.0
2017-09-11T09:55:20.661Z,20.2
2017-09-11T09:56:22.073Z,20.1
2017-09-11T09:57:23.479Z,19.9
2017-09-11T09:58:24.888Z,19.8
2017-09-11T09:59:26.668Z,20.1
2017-09-11T10:00:28.083Z,20.2
2017-09-11T10:01:29.489Z,20.4
2017-09-11T10:02:30.908Z,20.7
2017-09-11T10:03:32.320Z,20.9
2017-09-11T10:04:33.726Z,20.9
2017-09-11T10:05:35.138Z,20.8
2017-09-11T10:06:36.549Z,20.8
2017-09-11T10:07:37.958Z,20.8
2017-09-11T10:08:39.367Z,20.6
2017-09-11T10:09:40.770Z,20.5
2017-09-11T10:10:42.186Z,20.4
2017-09-11T10:11:44.758Z,20.3
2017-09-11T10:12:46.160Z,20.1
2017-09-11T10:13:47.568Z,20.0
2017-09-11T10:14:49.053Z,19.9
2017-09-11T10:15:50.456Z,19.9
2017-09-11T10:16:58.751Z,19.9
2017-09-11T10:18:00.256Z,19.8
2017-09-11T10:19:01.666Z,19.8
2017-09-11T10:20:03.064Z,19.7
2017-09-11T10:21:04.476Z,19.6
2017-09-11T10:22:05.883Z,19.5
2017-09-11T10:23:07.287Z,19.4
2017-09-11T10:24:08.798Z,19.8
2017-09-11T10:25:10.204Z,20.1
2017-09-11T10:26:11.678Z,20.5
2017-09-11T10:27:13.079Z,20.7
2017-09-11T10:28:14.777Z,20.7
2017-09-11T10:29:16.204Z,21.0
2017-09-11T10:30:17.613Z,21.1
2017-09-11T10:31:19.019Z,21.1
2017-09-11T10:32:20.912Z,21.2
2017-09-11T10:33:22.317Z,21.1
2017-09-11T10:34:24.585Z,21.3
2017-09-11T10:35:25.991Z,21.5
2017-09-11T10:36:27.412Z,21.7
2017-09-11T10:37:28.848Z,21.8
2017-09-11T10:38:30.292Z,21.9
2017-09-11T10:39:31.697Z,22.0
2017-09-11T10:40:33.583Z,22.1
2017-09-11T10:41:34.989Z,22.2
2017-09-11T10:42:36.788Z,22.5
2017-09-11T10:43:38.212Z,22.6
2017-09-11T10:44:39.622Z,22.8
2017-09-11T10:45:41.027Z,22.9
2017-09-11T10:46:42.536Z,23.1
2017-09-11T10:47:43.944Z,23.2
2017-09-11T10:48:45.351Z,23.5
2017-09-11T10:49:46.853Z,23.6
2017-09-11T10:50:48.291Z,23.7
2017-09-11T10:51:49.696Z,23.8
2017-09-11T10:52:51.180Z,24.0
2017-09-11T10:53:52.588Z,24.2
2017-09-11T10:54:53.995Z,23.9
2017-09-11T10:55:55.495Z,24.0
2017-09-11T10:56:56.908Z,24.2
2017-09-11T10:57:58.320Z,24.5
2017-09-11T10:58:59.820Z,24.7
2017-09-11T11:00:01.226Z,24.9
2017-09-11T11:01:02.698Z,25.0
2017-09-11T11:02:04.105Z,24.9
2017-09-11T11:03:05.578Z,25.0
2017-09-11T11:04:06.987Z,25.2
2017-09-11T11:05:08.456Z,25.5
2017-09-11T11:06:09.867Z,25.8
2017-09-11T11:07:11.339Z,26.1
2017-09-11T11:08:12.763Z,26.2
2017-09-11T11:09:14.220Z,26.5
2017-09-11T11:10:15.632Z,26.7
2017-09-11T11:11:17.098Z,26.7
2017-09-11T11:12:18.507Z,26.7
2017-09-11T11:13:19.911Z,26.6
2017-09-11T11:14:21.421Z,26.3
2017-09-11T11:15:22.827Z,25.9
2017-09-11T11:16:24.238Z,25.5
2017-09-11T11:17:25.742Z,24.9
2017-09-11T11:18:27.150Z,24.5
2017-09-11T11:19:28.618Z,24.4
2017-09-11T11:20:30.024Z,24.3
2017-09-11T11:21:31.506Z,23.8
2017-09-11T11:22:32.911Z,23.6
2017-09-11T11:23:34.346Z,23.4
2017-09-11T11:24:35.822Z,23.2
2017-09-11T11:25:37.230Z,23.1
2017-09-11T11:26:38.636Z,23.0
2017-09-11T11:27:40.144Z,22.9
2017-09-11T11:28:41.549Z,22.8
2017-09-11T11:29:43.027Z,22.8
2017-09-11T11:30:44.432Z,22.7
2017-09-11T11:31:45.906Z,22.6
2017-09-11T11:32:47.313Z,22.6
2017-09-11T11:33:48.716Z,22.5
2017-09-11T11:34:50.227Z,22.4
2017-09-11T11:35:51.634Z,22.2
2017-09-11T11:36:53.418Z,22.7
2017-09-11T11:37:54.857Z,23.3
2017-09-11T11:38:56.312Z,23.7
2017-09-11T11:39:57.725Z,24.1
2017-09-11T11:40:59.560Z,24.4
2017-09-11T11:42:00.967Z,24.7
2017-09-11T11:43:02.372Z,24.8
2017-09-11T11:44:03.802Z,24.7
2017-09-11T11:45:05.212Z,24.2
2017-09-11T11:46:06.618Z,24.4
2017-09-11T11:47:08.130Z,24.4
2017-09-11T11:48:09.539Z,24.2
2017-09-11T11:49:10.944Z,24.2
2017-09-11T11:50:12.450Z,24.2
2017-09-11T11:51:13.858Z,24.2
2017-09-11T11:52:15.268Z,24.2
2017-09-11T11:53:16.770Z,24.3
2017-09-11T11:54:18.179Z,24.4
2017-09-11T11:55:19.652Z,24.4
2017-09-11T11:56:21.056Z,24.5
2017-09-11T11:57:22.533Z,24.6
2017-09-11T11:58:23.940Z,24.9
2017-09-11T11:59:25.345Z,25.3
2017-09-11T12:00:26.852Z,25.7
2017-09-11T12:01:28.258Z,25.9
2017-09-11T12:02:29.664Z,26.6
2017-09-11T12:03:31.173Z,26.3
2017-09-11T12:04:32.576Z,25.6
2017-09-11T12:05:33.985Z,26.2
2017-09-11T12:06:46.092Z,25.7
2017-09-11T12:07:47.507Z,24.9
2017-09-11T12:08:48.916Z,24.3
2017-09-11T12:09:50.363Z,23.8
2017-09-11T12:10:51.780Z,23.5
2017-09-11T12:11:53.241Z,23.2
2017-09-11T12:12:54.646Z,22.9
2017-09-11T12:13:56.122Z,22.5
2017-09-11T12:14:57.528Z,22.5
2017-09-11T12:15:59.003Z,22.5
2017-09-11T12:17:00.413Z,22.4
2017-09-11T12:18:01.886Z,22.3
2017-09-11T12:19:03.295Z,22.2
2017-09-11T12:20:04.830Z,22.6
2017-09-11T12:21:06.235Z,22.4
2017-09-11T12:22:07.750Z,22.2
2017-09-11T12:23:09.156Z,22.1
2017-09-11T12:24:10.631Z,21.9
2017-09-11T12:25:12.035Z,21.8
2017-09-11T12:26:13.513Z,21.6
2017-09-11T12:27:14.918Z,21.7
2017-09-11T12:28:16.395Z,21.6
2017-09-11T12:29:17.798Z,21.5
2017-09-11T12:30:19.208Z,21.4
2017-09-11T12:31:20.719Z,21.3
2017-09-11T12:32:22.523Z,21.2
2017-09-11T12:33:23.927Z,21.0
2017-09-11T12:34:25.445Z,20.8
2017-09-11T12:35:26.846Z,20.8
2017-09-11T12:36:28.251Z,20.7
2017-09-11T12:37:29.813Z,20.6
2017-09-11T12:38:31.218Z,20.5
2017-09-11T12:39:32.626Z,20.4
2017-09-11T12:40:34.086Z,20.4
2017-09-11T12:41:35.488Z,20.4
2017-09-11T12:42:36.893Z,20.3
2017-09-11T12:43:39.367Z,20.3
2017-09-11T12:44:40.833Z,20.4
2017-09-11T12:45:42.237Z,20.4
2017-09-11T12:46:43.758Z,20.5
2017-09-11T12:47:45.157Z,20.6
2017-09-11T12:48:46.561Z,20.5
2017-09-11T12:49:48.069Z,20.6
2017-09-11T12:50:49.473Z,20.7
2017-09-11T12:51:50.877Z,20.6
2017-09-11T12:52:52.390Z,20.6
2017-09-11T12:53:53.795Z,20.5
2017-09-11T12:54:55.195Z,20.4
2017-09-11T12:55:56.712Z,20.3
2017-09-11T12:56:58.508Z,20.3
2017-09-11T12:58:00.004Z,20.1
2017-09-11T12:59:01.404Z,20.0
2017-09-11T13:00:02.892Z,19.9
2017-09-11T13:01:04.295Z,19.9
2017-09-11T13:02:06.164Z,19.9
2017-09-11T13:03:07.563Z,19.9
2017-09-11T13:04:09.054Z,19.8
2017-09-11T13:05:10.458Z,19.9
2017-09-11T13:06:11.935Z,20.0
2017-09-11T13:07:13.338Z,20.0
2017-09-11T13:08:14.818Z,20.0
2017-09-11T13:09:16.238Z,20.1
2017-09-11T13:10:17.707Z,20.1
2017-09-11T13:11:19.096Z,20.0
2017-09-11T13:12:20.587Z,19.9
2017-09-11T13:13:21.982Z,19.9
2017-09-11T13:14:23.461Z,19.9
2017-09-11T13:15:24.860Z,19.9
2017-09-11T13:16:26.341Z,19.9
2017-09-11T13:17:27.742Z,19.8
2017-09-11T13:18:29.225Z,19.8
2017-09-11T13:19:30.631Z,19.7
2017-09-11T13:20:32.117Z,19.7
2017-09-11T13:21:33.517Z,19.6
2017-09-11T13:22:34.989Z,19.6
2017-09-11T13:23:36.384Z,19.6
2017-09-11T13:24:37.790Z,19.5
2017-09-11T13:25:39.300Z,19.5
2017-09-11T13:26:40.750Z,19.5
2017-09-11T13:27:42.154Z,19.4
2017-09-11T13:28:43.620Z,19.4
2017-09-11T13:29:45.021Z,19.3
2017-09-11T13:30:46.421Z,19.3
2017-09-11T13:31:47.841Z,19.2
2017-09-11T13:32:49.242Z,19.2
2017-09-11T13:33:50.649Z,19.1
2017-09-11T13:34:52.161Z,19.3
2017-09-11T13:35:53.565Z,19.3
2017-09-11T13:36:54.975Z,19.2
2017-09-11T13:37:56.508Z,19.3
2017-09-11T13:38:57.894Z,19.2